windsock image

Welcome to Bigfield Strip.

anemometer image
     

 Help for dials.  
 
Local Met:

Wind:   
10 Min average:  
233 ° / 4.2 kts (4.3)
240° / 3.3

Temperature:  
15.3°C C
Dew Point:  
12.1°C C
QNH:  
Trend:  
1009.6 mb mb
+0.1mb/hr
BigField Strip. This image updates approximately every minute, it can have a two minute delay.  
 

Humidity:  
81 %
Sunrise:   04:28z
Sunset:   19:50z
Updated:  
  UTC
 
   More met info, trends, radar, history etc. available here   

LUTON Metar   EGGW 032250Z 19006KT 140V230 9999 BKN048 16/12 Q1011
 
  TAF   2015/08/03 21:26 TAF AMD EGGW 032119Z 0321/0418 20008KT 9999 SCT030 PROB30 TEMPO 0411/0416 21016G26KT
 
BENSON Metar   EGUB 032250Z 20008KT CAVOK 16/11 Q1010 BLU NOSIG
 
  TAF   2015/08/03 21:09 TAF TAF EGUB 031917Z 0321/0401 19008KT 9999 FEW040
 
Big Field view 1 icon   Big Field view 2 icon   Big Field view 3 icon   Chart AL3a in PDF icon   Chart AL3a in Word icon

WARNING:
This information is provided by the Airstrip unofficial weather station, DO NOT depend on the data provided here for any purpose.
This page is updated for latest Metars & TAF's every 5 minutes. Refresh the browser to check for the lastest.
Page designed for a minimum browser size of 1024x768.
© Copyright 2015 BigField Strip. This page auto generated 23:16 UTC - 03/08/2015   Contact Us
Valid HTML 4.01 Transitional     Windows uptime: 0 Days 20 Hours 44 Minutes 32 Seconds    WD started: 02:37 03/08/15    Free memory: 1546MB     Valid CSS!